createdAt,value
2019-03-15T00:00:51.611Z,3.62
2019-03-15T00:03:24.423Z,4.28
2019-03-15T00:05:54.003Z,4.25
2019-03-15T00:08:26.361Z,2.87
2019-03-15T00:10:55.686Z,4.90
2019-03-15T00:13:25.010Z,3.58
2019-03-15T00:15:59.425Z,2.75
2019-03-15T00:18:30.414Z,4.17
2019-03-15T00:21:05.225Z,3.30
2019-03-15T00:23:34.470Z,3.65
2019-03-15T00:26:04.894Z,3.02
2019-03-15T00:28:40.280Z,3.83
2019-03-15T00:31:13.839Z,3.67
2019-03-15T00:33:46.027Z,3.80
2019-03-15T00:36:18.398Z,3.20
2019-03-15T00:38:49.300Z,3.67
2019-03-15T00:41:18.635Z,4.20
2019-03-15T00:43:49.864Z,4.55
2019-03-15T00:46:18.869Z,3.25
2019-03-15T00:48:48.135Z,3.97
2019-03-15T00:51:19.807Z,4.70
2019-03-15T00:53:54.801Z,3.65
2019-03-15T00:56:36.036Z,4.60
2019-03-15T00:59:10.438Z,4.25
2019-03-15T01:01:46.172Z,3.20
2019-03-15T01:04:17.773Z,4.35
2019-03-15T01:06:47.022Z,4.62
2019-03-15T01:09:19.499Z,3.50
2019-03-15T01:11:51.464Z,4.08
2019-03-15T01:14:32.154Z,5.60
2019-03-15T01:17:05.770Z,4.95
2019-03-15T01:19:36.596Z,4.03
2019-03-15T01:22:06.188Z,5.50
2019-03-15T01:24:41.439Z,4.35
2019-03-15T01:27:12.663Z,4.30
2019-03-15T01:29:41.998Z,5.70
2019-03-15T01:32:14.490Z,3.95
2019-03-15T01:34:45.783Z,5.17
2019-03-15T01:37:15.190Z,3.95
2019-03-15T01:39:49.314Z,4.03
2019-03-15T01:42:19.636Z,5.28
2019-03-15T01:44:55.439Z,4.92
2019-03-15T01:47:26.726Z,5.60
2019-03-15T01:50:08.051Z,5.40
2019-03-15T01:52:43.104Z,5.72
2019-03-15T01:55:21.962Z,5.83
2019-03-15T01:57:55.269Z,5.53
2019-03-15T02:00:27.457Z,5.70
2019-03-15T02:03:13.773Z,6.25
2019-03-15T02:05:45.114Z,6.17
2019-03-15T02:08:16.634Z,5.47
2019-03-15T02:10:53.022Z,6.25
2019-03-15T02:13:37.120Z,5.33
2019-03-15T02:16:09.927Z,5.25
2019-03-15T02:18:41.455Z,5.22
2019-03-15T02:21:12.755Z,4.70
2019-03-15T02:23:44.870Z,3.98
2019-03-15T02:26:16.800Z,6.05
2019-03-15T02:29:00.138Z,5.35
2019-03-15T02:31:29.511Z,5.72
2019-03-15T02:34:00.141Z,5.20
2019-03-15T02:36:29.940Z,4.80
2019-03-15T02:39:09.099Z,4.80
2019-03-15T02:41:39.455Z,5.85
2019-03-15T02:44:11.887Z,4.55
2019-03-15T02:46:41.746Z,5.20
2019-03-15T02:49:11.068Z,4.40
2019-03-15T02:51:50.037Z,5.27
2019-03-15T02:54:19.550Z,4.37
2019-03-15T02:56:49.127Z,4.20
2019-03-15T07:17:57.781Z,8.50
2019-03-15T07:28:00.958Z,6.30
2019-03-15T07:30:49.762Z,10.25
2019-03-15T07:33:29.317Z,8.27
2019-03-15T07:36:26.679Z,7.67
2019-03-15T07:40:09.094Z,6.78
2019-03-15T07:42:42.493Z,8.60
2019-03-15T07:45:44.038Z,10.25
2019-03-15T07:48:37.954Z,8.65
2019-03-15T07:51:14.730Z,7.87
2019-03-15T07:54:17.965Z,8.03
2019-03-15T08:03:59.429Z,9.35
2019-03-15T08:07:10.814Z,8.50
2019-03-15T08:10:13.830Z,8.38
2019-03-15T08:15:56.392Z,8.35
2019-03-15T08:18:28.487Z,6.67
2019-03-15T08:21:02.705Z,11.03
2019-03-15T08:23:35.094Z,7.85
2019-03-15T08:26:22.629Z,8.58
2019-03-15T08:29:20.158Z,8.55
2019-03-15T08:31:51.243Z,9.78
2019-03-15T08:34:21.137Z,8.78
2019-03-15T08:36:53.289Z,9.68
2019-03-15T08:40:15.093Z,9.80
2019-03-15T08:43:27.567Z,10.93
2019-03-15T08:46:12.115Z,8.93
2019-03-15T08:49:06.122Z,9.85
2019-03-15T08:52:03.691Z,10.63
2019-03-15T08:55:04.744Z,12.10
2019-03-15T09:15:58.196Z,8.95
2019-03-15T09:41:51.734Z,9.90
2019-03-15T09:54:35.032Z,8.80
2019-03-15T09:57:38.726Z,8.83
2019-03-15T10:00:26.140Z,9.23
2019-03-15T10:07:07.092Z,7.28
2019-03-15T10:09:58.256Z,7.27
2019-03-15T17:50:05.527Z,7.37
2019-03-15T18:15:05.327Z,6.50
2019-03-15T18:18:03.786Z,8.40
2019-03-15T18:20:40.150Z,7.40
2019-03-15T18:23:18.838Z,6.83
2019-03-15T18:26:06.294Z,6.95
2019-03-15T18:28:38.517Z,7.83
2019-03-15T18:31:12.339Z,7.60
2019-03-15T18:33:45.606Z,7.90
2019-03-15T18:36:38.204Z,7.20
2019-03-15T19:02:26.898Z,9.60
2019-03-15T19:05:04.312Z,8.13
2019-03-15T19:07:35.252Z,8.78
2019-03-15T19:10:08.772Z,9.00
2019-03-15T19:12:39.217Z,7.37
2019-03-15T19:15:16.020Z,7.95
2019-03-15T19:17:54.548Z,7.62
2019-03-15T19:20:26.871Z,9.25
2019-03-15T19:23:01.892Z,12.15
2019-03-15T19:25:33.003Z,8.75
2019-03-15T19:28:03.048Z,6.65
2019-03-15T19:31:15.472Z,7.80
2019-03-15T19:34:25.341Z,7.35
2019-03-15T19:37:11.759Z,7.60
2019-03-15T19:40:00.612Z,7.45
2019-03-15T19:43:13.809Z,9.20
2019-03-15T19:45:55.100Z,7.10
2019-03-15T19:48:37.780Z,8.35
2019-03-15T19:51:34.044Z,8.18
2019-03-15T19:54:05.529Z,8.05
2019-03-15T19:56:59.558Z,8.13
2019-03-15T19:59:44.445Z,8.98
2019-03-15T20:02:17.931Z,10.05
2019-03-15T20:04:56.883Z,8.95
2019-03-15T20:07:36.200Z,8.75
2019-03-15T20:14:31.661Z,10.53
2019-03-15T20:20:04.298Z,9.60
2019-03-15T20:25:19.415Z,8.95
2019-03-15T20:27:53.947Z,9.05
2019-03-15T20:30:26.949Z,9.88
2019-03-15T20:33:32.266Z,10.32
2019-03-15T20:36:54.031Z,8.80
2019-03-15T20:42:19.445Z,8.80
2019-03-15T20:45:27.954Z,7.78
2019-03-15T20:48:18.394Z,8.58
2019-03-15T20:58:31.690Z,8.63
2019-03-15T21:01:35.789Z,10.65
2019-03-15T21:08:54.995Z,10.75
2019-03-15T21:11:29.645Z,9.65
2019-03-15T21:18:30.787Z,9.48
2019-03-15T21:37:30.650Z,8.88
2019-03-15T21:44:33.973Z,9.00
2019-03-15T21:51:47.872Z,7.97
2019-03-15T22:19:39.891Z,8.93
2019-03-15T22:22:29.696Z,8.40
2019-03-15T22:25:43.667Z,8.35
2019-03-15T22:28:43.962Z,6.85
2019-03-15T22:31:34.247Z,3.95
2019-03-15T22:34:14.245Z,2.80
2019-03-15T22:36:49.928Z,3.75
2019-03-15T22:39:32.556Z,3.22
2019-03-15T22:42:07.471Z,3.50
2019-03-15T22:44:45.200Z,4.17
2019-03-15T22:47:30.445Z,3.47
2019-03-15T22:50:01.807Z,4.50
2019-03-15T22:52:50.522Z,3.87
2019-03-15T22:55:45.714Z,4.45
2019-03-15T22:58:27.349Z,4.03
2019-03-15T23:01:30.487Z,4.40
2019-03-15T23:04:26.477Z,4.78
2019-03-15T23:06:58.853Z,4.05
2019-03-15T23:10:05.557Z,4.67
2019-03-15T23:16:30.473Z,3.58
2019-03-15T23:19:20.221Z,4.30
2019-03-15T23:22:18.456Z,3.40
2019-03-15T23:25:03.715Z,3.92
2019-03-15T23:27:40.385Z,3.92
2019-03-15T23:30:37.458Z,3.80
2019-03-15T23:37:31.240Z,4.62
2019-03-15T23:40:55.431Z,3.92
2019-03-15T23:43:42.296Z,4.17
2019-03-15T23:46:59.982Z,3.85
2019-03-15T23:50:14.110Z,4.85
2019-03-15T23:53:10.463Z,5.75
